Latest Weather Observations for Warragul (Nilma North)

IDV60801

Issued at 3:02 pm EST Monday 26 September 2016 (issued every 30 minutes, with the page automatically refreshed every 10 minutes)

About weather observations | Map of weather stations | Latest weather observations for VIC | Other Formats
Station Details ID: 085313 Name: NILMA NORTH (WARRAGUL) Lat: -38.13 Lon: 145.99 Height: 134.11 m
Data from the previous 72 hours. | See also: Recent months for locations in Victoria
Date/Time
EST
Temp
°C
App
Temp
°C
Dew
Point
°C
Rel
Hum
%
Delta-T
°C
Wind Press
QNH
hPa
Press
MSL
hPa
Rain since
9am
mm
Dir  Spd
km/h
Gust
km/h
Spd
kts
Gust
kts
26/03:00pm 13.7 11.1 6.1 60 3.7 WNW 9 20 5 11 1009.7 1009.8 0.0
26/02:30pm 15.3 12.6 5.8 53 4.6 W 9 13 5 7 1009.6 1009.7 0.0
26/02:00pm 14.2 11.5 5.8 57 4.0 W 9 15 5 8 1009.8 1009.9 0.0
26/01:30pm 15.1 12.7 6.9 58 4.0 WSW 9 15 5 8 1010.0 1010.1 0.0
26/01:00pm 14.3 11.5 5.1 54 4.3 W 9 15 5 8 1010.4 1010.5 0.0
26/12:30pm 13.7 10.4 4.6 54 4.2 W 11 19 6 10 1010.8 1010.9 0.0
26/12:00pm 14.3 10.7 4.9 53 4.4 W 13 19 7 10 1011.1 1011.2 0.0
26/11:30am 13.4 11.2 6.0 61 3.5 WNW 7 11 4 6 1011.5 1011.6 0.0
26/11:00am 12.6 10.1 6.4 66 3.0 W 9 17 5 9 1011.9 1012.0 0.0
26/10:30am 12.9 12.2 8.4 74 2.3 SE 2 6 1 3 1012.3 1012.4 0.0
26/10:00am 11.6 10.3 7.7 77 1.9 ESE 4 6 2 3 1012.6 1012.7 0.0
26/09:30am 9.0 7.5 7.0 87 0.9 ENE 4 6 2 3 1012.8 1012.9 0.0
26/09:00am 6.9 5.7 6.5 97 0.2 E 2 6 1 3 1013.0 1013.1 0.2
26/08:30am 6.2 4.9 5.9 98 0.1 NW 2 4 1 2 1013.4 1013.5 0.2
26/08:00am 5.6 3.4 5.3 98 0.1 SE 6 6 3 3 1013.1 1013.2 0.2
26/07:30am 5.3 3.8 5.2 99 0.0 SSE 2 4 1 2 1013.2 1013.3 0.2
26/07:00am 4.3 3.0 4.2 99 0.0 CALM 0 0 0 0 1013.2 1013.3 0.2
26/06:30am 3.9 2.5 3.8 99 0.0 CALM 0 0 0 0 1013.0 1013.1 0.2
26/06:00am 2.8 0.5 2.5 98 0.1 ENE 4 6 2 3 1012.8 1012.9 0.2
26/05:30am 3.2 0.9 2.9 98 0.1 SE 4 6 2 3 1012.8 1012.9 0.2
26/05:00am 3.7 1.5 3.6 99 0.0 ENE 4 6 2 3 1012.6 1012.7 0.2
26/04:30am 2.6 0.6 2.2 97 0.2 ESE 2 4 1 2 1012.7 1012.8 0.2
26/04:00am 3.5 1.7 3.2 98 0.1 ESE 2 2 1 1 1012.8 1012.9 0.2
26/03:30am 3.3 1.8 2.9 97 0.2 CALM 0 2 0 1 1012.8 1012.9 0.2
26/03:00am 3.1 1.1 2.5 96 0.2 SSE 2 4 1 2 1012.9 1013.0 0.2
26/02:30am 3.7 2.2 3.0 95 0.3 CALM 0 0 0 0 1013.0 1013.1 0.2
26/02:00am 4.3 2.9 3.4 94 0.4 CALM 0 0 0 0 1013.3 1013.4 0.2
26/01:30am 4.5 3.1 3.6 94 0.4 CALM 0 0 0 0 1013.3 1013.4 0.2
26/01:00am 5.0 3.5 3.2 88 0.7 CALM 0 0 0 0 1013.8 1013.8 0.2
26/12:30am 6.3 4.4 4.9 91 0.6 NNE 4 6 2 3 1013.8 1013.8 0.2
26/12:00am 6.5 5.0 4.8 89 0.7 N 2 4 1 2 1013.9 1013.9 0.2
 
Date/Time
EST
Temp
°C
App
Temp
°C
Dew
Point
°C
Rel
Hum
%
Delta-T
°C
Wind Press
QNH
hPa
Press
MSL
hPa
Rain since
9am
mm
Dir  Spd
km/h
Gust
km/h
Spd
kts
Gust
kts
25/11:30pm 6.4 4.4 4.4 87 0.9 NNW 4 6 2 3 1014.1 1014.1 0.2
25/11:00pm 6.5 4.6 4.7 88 0.8 NNW 4 6 2 3 1014.2 1014.2 0.2
25/10:30pm 6.6 4.2 4.4 86 1.0 NW 6 7 3 4 1014.3 1014.3 0.2
25/10:00pm 7.2 5.3 4.9 85 1.0 NNW 4 6 2 3 1014.2 1014.2 0.2
25/09:30pm 7.0 4.7 4.8 86 1.0 NW 6 7 3 4 1014.3 1014.3 0.2
25/09:00pm 6.8 5.2 4.3 84 1.1 NNW 2 6 1 3 1014.2 1014.2 0.2
25/08:30pm 7.1 5.5 4.4 83 1.2 WNW 2 4 1 2 1014.0 1014.0 0.2
25/08:00pm 7.0 4.9 4.1 82 1.3 WNW 4 6 2 3 1013.6 1013.6 0.2
25/07:30pm 7.9 6.3 4.3 78 1.6 WNW 2 4 1 2 1013.0 1013.1 0.2
25/07:00pm 8.4 6.7 4.2 75 1.8 W 2 4 1 2 1012.7 1012.8 0.2
25/06:30pm 9.2 7.2 4.2 71 2.2 WSW 4 7 2 4 1012.3 1012.4 0.2
25/06:00pm 10.3 7.8 3.8 64 2.9 WSW 6 9 3 5 1012.0 1012.1 0.2
25/05:30pm 11.8 8.6 3.3 56 3.8 WSW 9 19 5 10 1011.6 1011.7 0.2
25/05:00pm 11.9 8.4 3.4 56 3.8 WSW 11 24 6 13 1011.5 1011.6 0.2
25/04:30pm 11.8 9.2 5.9 67 2.8 W 9 19 5 10 1011.3 1011.4 0.2
25/04:00pm 12.2 9.1 7.1 71 2.5 W 13 19 7 10 1011.2 1011.3 0.2
25/03:30pm 11.4 7.8 4.8 64 3.0 WSW 13 24 7 13 1011.4 1011.5 0.2
25/03:00pm 10.9 7.1 5.9 71 2.3 WSW 15 28 8 15 1011.3 1011.4 0.2
25/02:30pm 11.4 8.0 5.7 68 2.7 W 13 22 7 12 1011.1 1011.2 0.2
25/02:00pm 11.3 8.9 7.2 76 2.0 WNW 9 15 5 8 1011.0 1011.1 0.0
25/01:30pm 10.8 7.3 5.6 70 2.4 W 13 22 7 12 1011.1 1011.2 0.0
25/01:00pm 11.3 7.5 5.8 69 2.6 WSW 15 28 8 15 1011.1 1011.2 0.0
25/12:30pm 10.9 6.7 5.7 70 2.4 WSW 17 32 9 17 1010.8 1010.9 0.0
25/12:00pm 13.6 9.6 6.5 62 3.4 W 17 26 9 14 1010.6 1010.7 0.0
25/11:30am 12.8 8.2 6.4 65 3.1 W 20 32 11 17 1010.5 1010.6 0.0
25/11:00am 12.2 7.7 6.0 66 2.9 WNW 19 35 10 19 1010.5 1010.6 0.0
25/10:30am 12.1 6.7 6.4 68 2.7 W 24 37 13 20 1010.4 1010.5 0.0
25/10:00am 12.6 8.2 7.5 71 2.5 W 20 41 11 22 1010.2 1010.3 0.0
25/09:30am 11.3 5.7 7.2 76 2.0 W 26 39 14 21 1010.0 1010.1 0.0
25/09:00am 10.9 5.0 7.6 80 1.6 W 28 39 15 21 1009.7 1009.8 2.0
25/08:30am 11.1 6.6 8.5 84 1.3 W 22 32 12 17 1009.4 1009.5 2.0
25/08:00am 10.5 6.3 8.3 86 1.1 W 20 32 11 17 1009.0 1009.1 2.0
25/07:30am 10.2 6.7 8.6 90 0.8 W 17 24 9 13 1008.9 1008.9 2.0
25/07:00am 9.9 5.9 8.3 90 0.8 W 19 28 10 15 1008.4 1008.4 2.0
25/06:30am 10.3 7.0 9.4 94 0.5 W 17 28 9 15 1008.0 1008.0 2.0
25/06:00am 10.4 8.2 9.5 94 0.5 W 11 20 6 11 1007.6 1007.6 1.8
25/05:30am 10.4 7.8 9.3 93 0.6 W 13 17 7 9 1007.4 1007.4 1.8
25/05:00am 10.4 8.2 9.3 93 0.6 W 11 19 6 10 1007.1 1007.1 1.8
25/04:30am 10.4 8.9 9.0 91 0.7 WSW 7 13 4 7 1006.9 1006.9 1.8
25/04:00am 11.4 8.6 10.1 92 0.7 W 15 22 8 12 1006.3 1006.3 1.8
25/03:30am 11.0 9.3 9.9 93 0.6 WNW 9 17 5 9 1005.9 1005.9 1.6
25/03:00am 10.7 9.9 9.8 94 0.5 WNW 4 6 2 3 1005.9 1005.9 1.6
25/02:30am 10.7 9.9 9.8 94 0.5 NW 4 6 2 3 1006.0 1006.0 1.6
25/02:00am 10.9 10.9 9.8 93 0.6 CALM 0 0 0 0 1006.3 1006.3 1.6
25/01:30am 11.2 10.5 10.0 92 0.6 WSW 4 6 2 3 1006.4 1006.4 1.4
25/01:00am 11.3 11.4 10.0 92 0.7 CALM 0 7 0 4 1006.5 1006.5 1.2
25/12:30am 11.5 11.3 9.2 86 1.2 CALM 0 4 0 2 1006.6 1006.6 0.6
25/12:00am 11.8 11.6 9.2 84 1.3 CALM 0 2 0 1 1006.4 1006.4 0.0
 
Date/Time
EST
Temp
°C
App
Temp
°C
Dew
Point
°C
Rel
Hum
%
Delta-T
°C
Wind Press
QNH
hPa
Press
MSL
hPa
Rain since
9am
mm
Dir  Spd
km/h
Gust
km/h
Spd
kts
Gust
kts
24/11:30pm 12.5 11.7 8.2 75 2.1 NNW 2 4 1 2 1006.4 1006.4 0.0
24/11:00pm 12.6 11.6 7.5 71 2.5 NW 2 4 1 2 1006.4 1006.4 0.0
24/10:30pm 11.9 11.6 8.7 81 1.6 CALM 0 0 0 0 1006.4 1006.4 0.0
24/10:00pm 12.0 11.7 8.5 79 1.8 CALM 0 0 0 0 1006.5 1006.5 0.0
24/09:30pm 12.5 11.6 7.8 73 2.3 SSW 2 2 1 1 1006.6 1006.6 0.0
24/09:00pm 12.8 12.0 8.3 74 2.3 SSW 2 4 1 2 1006.6 1006.6 0.0
24/08:30pm 13.6 13.0 7.6 67 3.0 CALM 0 0 0 0 1006.4 1006.4 0.0
24/08:00pm 14.1 12.9 6.5 60 3.7 NW 2 2 1 1 1006.3 1006.3 0.0
24/07:30pm 15.1 13.4 6.1 55 4.4 NNW 4 9 2 5 1006.1 1006.1 0.0
24/07:00pm 14.9 12.8 6.5 57 4.1 NNW 7 13 4 7 1006.2 1006.2 0.0
24/06:30pm 14.8 13.3 6.9 59 3.9 NW 4 7 2 4 1006.3 1006.3 0.0
24/06:00pm 15.1 13.1 7.2 59 3.9 NW 7 13 4 7 1006.1 1006.1 0.0
24/05:30pm 15.7 14.1 8.2 61 3.8 NW 6 13 3 7 1005.9 1005.9 0.0
24/05:00pm 16.7 15.1 8.1 57 4.4 NW 6 9 3 5 1005.6 1005.7 0.0
24/04:30pm 18.2 16.2 8.5 53 5.0 NW 9 15 5 8 1005.5 1005.6 0.0
24/04:00pm 19.0 16.5 8.1 49 5.7 WNW 11 20 6 11 1005.5 1005.6 0.0
24/03:30pm 20.4 17.9 9.6 50 5.8 NW 13 20 7 11 1005.5 1005.6 0.0
24/03:00pm 19.2 17.8 7.3 46 6.1 WSW 4 9 2 5 1005.6 1005.7 0.0
24/02:30pm 18.9 16.5 8.6 51 5.4 W 11 15 6 8 1005.6 1005.7 0.0
24/02:00pm 18.9 17.4 9.1 53 5.2 NW 7 17 4 9 1005.9 1005.9 0.0
24/01:30pm 19.3 16.2 7.1 45 6.2 N 13 22 7 12 1005.5 1005.6 0.0
24/01:00pm 18.9 15.5 6.1 43 6.4 N 13 20 7 11 1006.1 1006.1 0.0
24/12:30pm 19.3 16.7 7.7 47 6.0 N 11 22 6 12 1006.7 1006.7 0.0
24/12:00pm 18.0 16.8 9.6 58 4.5 W 6 9 3 5 1007.2 1007.2 0.0
24/11:30am 17.1 16.8 10.2 64 3.7 N 2 6 1 3 1007.7 1007.7 0.0
24/11:00am 16.4 16.1 11.3 72 2.8 S 4 7 2 4 1008.3 1008.3 0.0
24/10:30am 15.2 14.3 10.6 74 2.4 SSW 6 9 3 5 1008.8 1008.8 0.0
24/10:00am 14.4 14.0 11.2 81 1.7 S 4 7 2 4 1009.3 1009.4 0.0
24/09:30am 13.8 13.3 12.0 89 1.0 SE 6 9 3 5 1009.8 1009.9 0.0
24/09:00am 12.9 12.1 11.1 89 1.0 E 6 9 3 5 1010.0 1010.1 0.2
24/08:30am 11.5 10.7 10.9 96 0.3 E 6 7 3 4 1010.3 1010.4 0.2
24/08:00am 10.6 9.6 10.3 98 0.2 E 6 7 3 4 1010.5 1010.6 0.2
24/07:30am 10.3 9.3 10.3 100 0.0 ENE 6 6 3 3 1010.4 1010.5 0.2
24/07:00am 9.6 8.4 9.6 100 0.0 E 6 9 3 5 1010.4 1010.5 0.2
24/06:30am 9.3 8.4 9.3 100 0.0 ENE 4 6 2 3 1010.5 1010.6 0.2
24/06:00am 9.2 7.9 9.2 100 0.0 ENE 6 9 3 5 1010.4 1010.5 0.2
24/05:30am 9.1 7.8 9.1 100 0.0 ENE 6 7 3 4 1010.3 1010.4 0.2
24/05:00am 9.1 7.8 9.1 100 0.0 NE 6 7 3 4 1010.3 1010.4 0.2
24/04:30am 9.2 7.3 9.2 100 0.0 E 9 13 5 7 1010.1 1010.2 0.2
24/04:00am 9.3 7.8 9.3 100 0.0 ENE 7 13 4 7 1010.2 1010.3 0.2
24/03:30am 9.3 7.1 9.3 100 0.0 E 11 15 6 8 1010.4 1010.5 0.2
24/03:00am 9.1 7.2 9.1 100 0.0 E 9 15 5 8 1010.6 1010.7 0.2
24/02:30am 9.4 7.9 9.3 99 0.0 ENE 7 9 4 5 1011.0 1011.1 0.2
24/02:00am 9.6 8.2 9.5 99 0.1 E 7 13 4 7 1011.2 1011.3 0.2
24/01:30am 9.6 8.4 9.5 99 0.1 E 6 9 3 5 1011.4 1011.5 0.2
24/01:00am 9.4 8.1 9.1 98 0.1 E 6 9 3 5 1011.6 1011.7 0.2
24/12:30am 9.4 7.5 8.9 97 0.2 E 9 13 5 7 1011.4 1011.5 0.2
24/12:00am 9.6 8.1 9.0 96 0.3 ESE 7 11 4 6 1011.5 1011.6 0.2
 
Date/Time
EST
Temp
°C
App
Temp
°C
Dew
Point
°C
Rel
Hum
%
Delta-T
°C
Wind Press
QNH
hPa
Press
MSL
hPa
Rain since
9am
mm
Dir  Spd
km/h
Gust
km/h
Spd
kts
Gust
kts
23/11:30pm 10.0 7.4 9.2 95 0.4 E 13 20 7 11 1011.5 1011.6 0.2
23/11:00pm 10.4 7.8 9.3 93 0.6 E 13 20 7 11 1011.8 1011.9 0.2
23/10:30pm 10.7 8.5 9.5 92 0.6 E 11 17 6 9 1012.3 1012.4 0.2
23/10:00pm 10.7 8.5 9.3 91 0.7 E 11 19 6 10 1012.3 1012.4 0.2
23/09:30pm 10.9 8.7 9.3 90 0.8 E 11 19 6 10 1012.3 1012.4 0.2
23/09:00pm 11.2 8.2 9.3 88 1.0 E 15 20 8 11 1012.1 1012.2 0.2
23/08:30pm 11.2 8.5 9.1 87 1.1 E 13 20 7 11 1012.2 1012.3 0.2
23/08:00pm 11.6 8.6 9.2 85 1.2 E 15 22 8 12 1012.2 1012.3 0.2
23/07:30pm 12.1 8.6 8.9 81 1.6 E 17 24 9 13 1012.1 1012.2 0.2
23/07:00pm 12.3 8.9 9.1 81 1.6 E 17 24 9 13 1011.9 1012.0 0.2
23/06:30pm 12.8 9.8 9.1 78 1.9 E 15 22 8 12 1011.5 1011.6 0.2
23/06:00pm 13.4 10.7 9.1 75 2.2 E 13 20 7 11 1011.6 1011.7 0.2
23/05:30pm 14.1 11.0 8.9 71 2.7 E 15 24 8 13 1011.6 1011.7 0.2
23/05:00pm 14.7 11.3 9.3 70 2.8 ESE 17 28 9 15 1011.5 1011.6 0.2
23/04:30pm 15.2 11.5 9.3 68 3.1 ESE 19 30 10 16 1011.5 1011.6 0.2
23/04:00pm 15.6 11.7 8.8 64 3.5 ESE 19 30 10 16 1011.7 1011.8 0.2
23/03:30pm 15.7 11.5 8.4 62 3.7 ESE 20 32 11 17 1011.9 1012.0 0.2

Other Formats:

Comma delimited format used in spreadsheet applications
http://www.bom.gov.au/fwo/IDV60801/IDV60801.99806.axf

JavaScript Object Notation format (JSON) in row-major order
http://www.bom.gov.au/fwo/IDV60801/IDV60801.99806.json